Time;durP1;ratioP1;P1;durP2;ratioP2;P2;SDS_P1;SDS_P2;PMS_P1;PMS_P2;Temp;Humidity;BMP_temperature;BMP_pressure;BME280_temperature;BME280_humidity;BME280_pressure;Samples;Min_cycle;Max_cycle;Signal;HPM_P1;HPM_P2
2021/07/13 00:02:12;;;;;;;5.80;2.63;;;19.60;99.90;;;;;;5071223;28;20386;-60
2021/07/13 00:04:37;;;;;;;6.25;3.45;;;19.60;99.90;;;;;;5070418;28;20376;-60
2021/07/13 00:07:03;;;;;;;5.80;3.20;;;19.40;99.90;;;;;;5070999;28;20956;-60
2021/07/13 00:09:29;;;;;;;6.97;2.80;;;19.40;99.90;;;;;;5070105;28;20454;-60
2021/07/13 00:11:56;;;;;;;6.07;2.40;;;19.40;99.90;;;;;;5070947;28;20407;-60
2021/07/13 00:14:23;;;;;;;4.40;2.00;;;19.50;99.90;;;;;;5070809;28;20388;-57
2021/07/13 00:16:49;;;;;;;5.43;3.00;;;19.40;99.90;;;;;;5070860;28;20375;-60
2021/07/13 00:19:15;;;;;;;6.38;2.40;;;19.40;99.90;;;;;;5071001;28;20773;-60
2021/07/13 00:21:40;;;;;;;5.63;2.40;;;19.30;99.90;;;;;;5070267;28;20395;-60
2021/07/13 00:24:07;;;;;;;5.90;2.50;;;19.30;99.90;;;;;;5070179;28;20386;-60
2021/07/13 00:26:35;;;;;;;5.80;2.80;;;19.20;99.90;;;;;;5071062;28;20380;-60
2021/07/13 00:29:05;;;;;;;5.88;3.08;;;19.20;99.90;;;;;;5069922;28;20392;-60
2021/07/13 00:31:31;;;;;;;8.00;3.20;;;19.30;99.90;;;;;;5069117;28;20399;-59
2021/07/13 00:33:58;;;;;;;7.40;3.63;;;19.30;99.90;;;;;;5069958;28;20411;-59
2021/07/13 00:36:24;;;;;;;10.23;4.38;;;19.20;99.90;;;;;;5069290;28;20429;-57
2021/07/13 00:38:50;;;;;;;7.57;3.88;;;19.20;99.90;;;;;;5068689;28;20413;-60
2021/07/13 00:41:15;;;;;;;10.40;4.50;;;19.20;99.90;;;;;;5069672;28;20749;-60
2021/07/13 00:43:42;;;;;;;9.47;5.20;;;19.20;99.90;;;;;;5069282;28;20384;-60
2021/07/13 00:46:08;;;;;;;11.15;5.50;;;19.10;99.90;;;;;;5070811;28;20465;-59
2021/07/13 00:48:35;;;;;;;10.48;5.85;;;19.10;99.90;;;;;;5080744;28;20926;-59
2021/07/13 00:51:03;;;;;;;9.90;5.88;;;19.10;99.90;;;;;;5069459;28;20371;-59
2021/07/13 00:53:30;;;;;;;8.75;5.72;;;19.10;99.90;;;;;;5067340;28;20462;-59
2021/07/13 00:55:58;;;;;;;11.40;5.80;;;19.00;99.90;;;;;;5069442;28;20472;-59
2021/07/13 00:58:25;;;;;;;9.82;5.88;;;19.00;99.90;;;;;;5069579;28;20379;-57
2021/07/13 01:00:51;;;;;;;11.20;5.43;;;19.00;99.90;;;;;;5070293;28;20418;-60
2021/07/13 01:03:16;;;;;;;8.40;4.40;;;19.00;99.90;;;;;;5070298;28;20818;-61
2021/07/13 01:05:45;;;;;;;12.97;4.90;;;19.00;99.90;;;;;;5069022;28;20395;-61
2021/07/13 01:08:43;;;;;;;12.63;5.10;;;19.10;99.90;;;;;;5069783;28;20457;-63
2021/07/13 01:11:26;;;;;;;10.77;5.00;;;19.20;99.90;;;;;;5069938;28;20508;-62
2021/07/13 01:14:29;;;;;;;7.15;4.20;;;19.20;99.90;;;;;;5070067;28;20380;-63
2021/07/13 01:17:00;;;;;;;9.23;4.22;;;19.00;99.90;;;;;;5069919;28;20482;-62
2021/07/13 01:19:35;;;;;;;9.15;4.40;;;19.00;99.90;;;;;;5069081;28;20380;-58
2021/07/13 01:22:07;;;;;;;8.23;4.50;;;19.00;99.90;;;;;;5068297;28;20396;-61
2021/07/13 01:24:48;;;;;;;10.07;4.90;;;19.00;99.90;;;;;;5069126;28;20376;-61
2021/07/13 01:27:36;;;;;;;9.90;5.00;;;19.10;99.90;;;;;;5069641;28;20415;-60
2021/07/13 01:30:11;;;;;;;9.20;5.03;;;19.00;99.90;;;;;;5069261;28;20427;-60
2021/07/13 01:32:39;;;;;;;10.20;5.00;;;18.90;99.90;;;;;;5068851;28;20415;-60
2021/07/13 01:35:09;;;;;;;8.38;4.80;;;18.90;99.90;;;;;;5069584;28;20380;-60
2021/07/13 01:37:37;;;;;;;8.43;4.80;;;18.90;99.90;;;;;;5068810;28;20444;-60
2021/07/13 01:40:07;;;;;;;8.23;4.60;;;18.90;99.90;;;;;;5069249;28;20690;-60
2021/07/13 01:42:35;;;;;;;7.70;4.65;;;18.80;99.90;;;;;;5068569;28;20376;-61
2021/07/13 01:45:02;;;;;;;10.30;5.00;;;18.90;99.90;;;;;;5069275;28;20383;-60
2021/07/13 01:47:29;;;;;;;7.90;4.60;;;18.90;99.90;;;;;;5068347;28;20411;-59
2021/07/13 01:49:57;;;;;;;7.88;4.60;;;19.00;99.90;;;;;;5069075;28;20376;-60
2021/07/13 01:52:24;;;;;;;9.25;4.90;;;19.00;99.90;;;;;;5069346;28;20427;-59
2021/07/13 01:54:51;;;;;;;9.65;5.28;;;19.00;99.90;;;;;;5068587;28;20379;-60
2021/07/13 01:57:16;;;;;;;8.30;5.10;;;18.90;99.90;;;;;;5069447;28;20733;-60
2021/07/13 01:59:46;;;;;;;10.65;4.50;;;18.80;99.90;;;;;;5068627;28;20380;-60
2021/07/13 02:02:13;;;;;;;8.30;5.03;;;18.60;99.90;;;;;;5069010;28;20391;-60
2021/07/13 02:04:40;;;;;;;7.15;4.47;;;18.60;99.90;;;;;;5068317;28;20384;-60
2021/07/13 02:07:08;;;;;;;10.50;4.40;;;18.70;99.90;;;;;;5068892;28;20387;-60
2021/07/13 02:09:35;;;;;;;7.03;4.47;;;18.60;99.90;;;;;;5068029;28;20404;-60
2021/07/13 02:12:03;;;;;;;7.70;4.40;;;18.50;99.90;;;;;;5069034;28;20413;-59
2021/07/13 02:14:28;;;;;;;8.57;4.43;;;18.40;99.90;;;;;;5067822;28;20706;-59
2021/07/13 02:16:54;;;;;;;9.43;4.20;;;18.50;99.90;;;;;;5069171;28;20472;-60
2021/07/13 02:19:21;;;;;;;9.00;3.95;;;18.50;99.90;;;;;;5069217;28;20419;-59
2021/07/13 02:21:48;;;;;;;7.63;3.90;;;18.60;99.90;;;;;;5068165;28;20854;-60
2021/07/13 02:24:15;;;;;;;7.80;3.80;;;18.50;99.90;;;;;;5068917;28;20386;-59
2021/07/13 02:26:54;;;;;;;7.20;3.80;;;18.50;99.90;;;;;;5068114;28;20382;-59
2021/07/13 02:29:35;;;;;;;8.55;3.95;;;18.60;99.90;;;;;;5068678;28;20379;-60
2021/07/13 02:32:04;;;;;;;8.20;3.40;;;18.70;99.90;;;;;;5068769;28;20485;-59
2021/07/13 02:34:32;;;;;;;7.32;3.70;;;18.70;99.90;;;;;;5067860;28;20380;-59
2021/07/13 02:37:01;;;;;;;7.20;3.30;;;18.60;99.90;;;;;;5068302;28;20869;-59
2021/07/13 02:39:29;;;;;;;6.60;3.40;;;18.60;99.90;;;;;;5067647;28;20450;-57
2021/07/13 02:41:55;;;;;;;6.63;3.30;;;18.60;99.90;;;;;;5069192;28;20383;-59
2021/07/13 02:44:23;;;;;;;8.90;3.80;;;18.60;99.90;;;;;;5068337;28;20415;-58
2021/07/13 02:46:50;;;;;;;8.05;3.90;;;18.70;99.90;;;;;;5066603;28;20379;-57
2021/07/13 02:49:20;;;;;;;8.50;3.58;;;18.60;99.90;;;;;;5066413;28;20419;-57
2021/07/13 02:51:50;;;;;;;7.50;4.10;;;18.70;99.90;;;;;;5065592;28;20528;-57
2021/07/13 02:54:19;;;;;;;10.50;4.60;;;18.80;99.90;;;;;;5066553;28;20391;-57
2021/07/13 02:56:46;;;;;;;9.63;5.00;;;18.70;99.90;;;;;;5066119;28;20404;-56
2021/07/13 02:59:12;;;;;;;9.60;5.70;;;18.70;99.90;;;;;;5066417;28;20380;-57
2021/07/13 03:01:39;;;;;;;9.15;5.60;;;18.70;99.90;;;;;;5068024;28;20433;-57
2021/07/13 03:04:06;;;;;;;9.75;5.95;;;18.70;99.90;;;;;;5070029;28;21117;-57
2021/07/13 03:06:32;;;;;;;9.93;6.70;;;18.90;99.90;;;;;;5068760;28;20785;-57
2021/07/13 03:08:58;;;;;;;10.57;6.20;;;19.00;99.90;;;;;;5069379;28;20400;-58
2021/07/13 03:11:24;;;;;;;12.25;6.68;;;19.10;99.90;;;;;;5071606;28;20418;-57
2021/07/13 03:13:50;;;;;;;17.13;7.72;;;19.10;99.90;;;;;;5071605;28;20407;-57
2021/07/13 03:16:16;;;;;;;10.30;7.20;;;19.20;99.90;;;;;;5070574;28;21052;-57
2021/07/13 03:18:42;;;;;;;10.48;7.10;;;19.30;99.90;;;;;;5071008;28;20423;-57
2021/07/13 03:21:11;;;;;;;10.03;7.60;;;19.30;99.90;;;;;;5071696;28;20759;-58
2021/07/13 03:23:40;;;;;;;12.25;8.40;;;19.40;99.90;;;;;;5070786;28;20384;-57
2021/07/13 03:26:07;;;;;;;12.25;7.75;;;19.40;99.90;;;;;;5071761;28;20383;-58
2021/07/13 03:28:34;;;;;;;12.15;8.40;;;19.30;99.90;;;;;;5071201;28;20376;-57
2021/07/13 03:31:00;;;;;;;12.43;8.50;;;19.30;99.90;;;;;;5079335;28;20848;-58
2021/07/13 03:33:27;;;;;;;13.13;9.60;;;19.40;99.90;;;;;;5091301;28;20530;-56
2021/07/13 03:35:56;;;;;;;11.32;8.45;;;19.40;99.90;;;;;;5091562;28;20390;-58
2021/07/13 03:38:21;;;;;;;12.63;8.73;;;19.40;99.90;;;;;;5092088;28;20389;-58
2021/07/13 03:40:49;;;;;;;12.32;8.85;;;19.40;99.90;;;;;;5091376;28;20510;-58
2021/07/13 03:43:15;;;;;;;12.02;8.45;;;19.40;99.90;;;;;;5091824;28;20378;-60
2021/07/13 03:45:42;;;;;;;12.07;8.55;;;19.50;99.90;;;;;;5090898;28;20383;-58
2021/07/13 03:48:10;;;;;;;13.90;8.63;;;19.50;99.90;;;;;;5091961;28;20875;-58
2021/07/13 03:50:36;;;;;;;13.00;8.40;;;19.50;99.90;;;;;;5089536;28;20437;-58
2021/07/13 03:53:03;;;;;;;11.82;7.70;;;19.50;99.90;;;;;;5091451;28;20390;-58
2021/07/13 03:55:29;;;;;;;12.90;7.95;;;19.50;99.90;;;;;;5090823;28;20382;-56
2021/07/13 03:57:55;;;;;;;13.83;8.13;;;19.30;99.90;;;;;;5090928;28;20868;-58
2021/07/13 04:00:23;;;;;;;13.02;8.45;;;19.40;99.90;;;;;;5091031;28;20374;-58
2021/07/13 04:02:48;;;;;;;11.60;8.38;;;19.90;99.90;;;;;;5090129;28;20698;-58
2021/07/13 04:05:14;;;;;;;11.88;8.73;;;19.30;99.90;;;;;;5091251;28;20867;-58
2021/07/13 04:07:41;;;;;;;13.23;9.80;;;19.30;99.90;;;;;;5088947;28;20382;-60
2021/07/13 04:10:12;;;;;;;13.40;9.23;;;19.30;99.90;;;;;;5090569;28;20406;-58
2021/07/13 04:12:38;;;;;;;14.27;9.88;;;19.30;99.90;;;;;;5090437;28;20420;-57
2021/07/13 04:15:05;;;;;;;12.30;8.80;;;19.20;99.90;;;;;;5091336;28;20493;-58
2021/07/13 04:17:31;;;;;;;13.02;8.50;;;19.20;99.90;;;;;;5089931;28;20394;-56
2021/07/13 04:19:57;;;;;;;15.73;8.77;;;19.20;99.90;;;;;;5091612;28;20377;-58
2021/07/13 04:22:22;;;;;;;11.82;8.68;;;19.20;99.90;;;;;;5085813;28;20409;-58
2021/07/13 04:24:48;;;;;;;13.95;8.73;;;19.30;99.90;;;;;;5082020;28;20468;-58
2021/07/13 04:27:14;;;;;;;12.17;8.00;;;19.30;99.90;;;;;;5086453;28;20883;-57
2021/07/13 04:29:40;;;;;;;11.95;8.07;;;19.30;99.90;;;;;;5091061;28;20374;-59
2021/07/13 04:32:06;;;;;;;12.77;8.80;;;19.40;99.90;;;;;;5090288;28;20535;-58
2021/07/13 04:34:32;;;;;;;13.30;8.55;;;19.30;99.90;;;;;;5071954;28;20405;-59
2021/07/13 04:36:58;;;;;;;12.05;8.38;;;19.30;99.90;;;;;;5088553;28;20951;-57
2021/07/13 04:39:23;;;;;;;12.38;8.40;;;19.40;99.90;;;;;;5079976;28;20527;-59
2021/07/13 04:41:49;;;;;;;14.63;7.80;;;19.40;99.90;;;;;;5078374;28;20386;-58
2021/07/13 04:44:15;;;;;;;10.45;6.32;;;19.40;99.90;;;;;;5090548;28;20404;-58
2021/07/13 04:46:40;;;;;;;10.95;6.85;;;19.40;99.90;;;;;;5069993;28;20466;-58
2021/07/13 04:49:08;;;;;;;12.27;6.77;;;19.50;99.90;;;;;;5070516;28;20441;-58
2021/07/13 04:51:34;;;;;;;12.27;6.50;;;19.50;99.90;;;;;;5077414;28;20407;-59
2021/07/13 04:54:00;;;;;;;9.50;5.70;;;19.60;99.90;;;;;;5082583;28;20447;-58
2021/07/13 04:56:25;;;;;;;9.23;5.20;;;19.60;99.90;;;;;;5073999;28;20400;-60
2021/07/13 04:58:51;;;;;;;9.25;5.05;;;19.70;99.90;;;;;;5087016;28;21291;-59
2021/07/13 05:01:17;;;;;;;7.30;4.17;;;19.70;99.90;;;;;;5075726;28;20763;-59
2021/07/13 05:03:42;;;;;;;6.83;3.67;;;19.80;99.90;;;;;;5075837;28;20469;-59
2021/07/13 05:06:08;;;;;;;8.37;4.60;;;20.00;99.90;;;;;;5089903;28;20392;-59
2021/07/13 05:08:34;;;;;;;8.23;4.05;;;20.00;99.90;;;;;;5084012;28;20401;-59
2021/07/13 05:10:59;;;;;;;6.75;3.55;;;20.10;99.90;;;;;;5090448;28;20490;-59
2021/07/13 05:13:25;;;;;;;8.50;3.80;;;20.10;99.90;;;;;;5080476;28;20491;-59
2021/07/13 05:15:51;;;;;;;7.40;3.28;;;20.20;99.90;;;;;;5068125;28;20462;-58
2021/07/13 05:18:17;;;;;;;7.15;3.67;;;20.20;99.90;;;;;;5082841;28;20397;-59
2021/07/13 05:20:50;;;;;;;7.25;3.90;;;20.30;99.90;;;;;;5088813;28;20849;-59
2021/07/13 05:23:16;;;;;;;8.40;3.50;;;20.40;99.90;;;;;;5084171;28;20559;-59
2021/07/13 05:25:42;;;;;;;8.40;4.30;;;20.50;99.90;;;;;;5088268;28;20919;-61
2021/07/13 05:28:12;;;;;;;6.53;3.83;;;20.60;99.90;;;;;;5089641;28;20394;-61
2021/07/13 05:30:43;;;;;;;7.53;4.10;;;20.50;99.90;;;;;;5088719;28;20427;-61
2021/07/13 05:33:10;;;;;;;8.50;3.97;;;20.20;99.90;;;;;;5089171;28;20425;-59
2021/07/13 05:35:35;;;;;;;7.60;3.90;;;20.10;99.90;;;;;;5089139;28;20401;-60
2021/07/13 05:38:01;;;;;;;7.32;3.58;;;20.20;99.90;;;;;;5089121;28;20755;-60
2021/07/13 05:40:27;;;;;;;7.78;3.60;;;20.30;99.90;;;;;;5072241;28;20387;-61
2021/07/13 05:42:53;;;;;;;9.10;3.90;;;20.40;99.90;;;;;;5076117;28;21047;-59
2021/07/13 05:45:19;;;;;;;7.80;4.10;;;20.50;99.90;;;;;;5089602;28;20872;-61
2021/07/13 05:47:45;;;;;;;7.40;3.80;;;20.50;99.90;;;;;;5088772;28;20560;-61
2021/07/13 05:50:12;;;;;;;7.93;4.10;;;20.60;99.90;;;;;;5085590;28;20401;-58
2021/07/13 05:52:38;;;;;;;9.60;4.43;;;20.60;99.90;;;;;;5073589;28;20419;-61
2021/07/13 05:55:05;;;;;;;7.53;3.70;;;20.60;99.90;;;;;;5087404;28;20428;-62
2021/07/13 05:57:31;;;;;;;8.80;4.57;;;20.60;99.90;;;;;;5088494;28;20408;-58
2021/07/13 05:59:57;;;;;;;7.30;4.20;;;20.60;99.90;;;;;;5088512;28;20851;-60
2021/07/13 06:02:23;;;;;;;8.63;3.80;;;20.50;99.90;;;;;;5088692;28;20390;-58
2021/07/13 06:04:49;;;;;;;7.88;4.15;;;20.40;99.90;;;;;;5085773;28;20393;-58
2021/07/13 06:07:14;;;;;;;7.17;3.43;;;20.20;99.90;;;;;;5088665;28;20424;-58
2021/07/13 06:09:40;;;;;;;10.80;3.30;;;20.20;99.90;;;;;;5085015;28;20921;-58
2021/07/13 06:12:06;;;;;;;9.30;3.73;;;20.00;99.90;;;;;;5088711;28;20398;-58
2021/07/13 06:14:34;;;;;;;6.60;3.80;;;20.00;99.90;;;;;;5088706;28;20382;-56
2021/07/13 06:17:00;;;;;;;8.13;4.20;;;19.90;99.90;;;;;;5089005;28;20478;-60
2021/07/13 06:19:26;;;;;;;8.50;5.20;;;19.90;99.90;;;;;;5089208;28;20473;-59
2021/07/13 06:21:51;;;;;;;9.60;5.47;;;19.80;99.90;;;;;;5088154;28;20435;-58
2021/07/13 06:24:17;;;;;;;11.30;4.37;;;19.70;99.90;;;;;;5088520;28;20874;-58
2021/07/13 06:26:42;;;;;;;9.15;4.70;;;19.60;99.90;;;;;;5085001;28;20397;-58
2021/07/13 06:29:08;;;;;;;7.15;4.13;;;19.50;99.90;;;;;;5074136;28;20376;-58
2021/07/13 06:31:34;;;;;;;8.10;4.20;;;19.50;99.90;;;;;;5068255;28;20403;-56
2021/07/13 06:33:59;;;;;;;8.60;4.00;;;19.70;99.90;;;;;;5088289;28;20410;-58
2021/07/13 06:36:25;;;;;;;10.25;5.10;;;19.80;99.90;;;;;;5082694;28;20429;-58
2021/07/13 06:38:50;;;;;;;7.18;4.97;;;19.90;99.90;;;;;;5077864;28;20396;-58
2021/07/13 06:41:16;;;;;;;9.97;4.97;;;19.90;99.90;;;;;;5077552;28;20387;-58
2021/07/13 06:43:42;;;;;;;8.20;5.30;;;19.80;99.90;;;;;;5072530;28;20391;-58
2021/07/13 06:46:07;;;;;;;7.87;5.20;;;19.90;99.90;;;;;;5072802;28;20387;-59
2021/07/13 06:48:33;;;;;;;9.70;4.28;;;20.00;99.90;;;;;;5089006;28;20815;-57
2021/07/13 06:50:59;;;;;;;10.15;4.40;;;20.10;99.90;;;;;;5092632;28;20366;-58
2021/07/13 06:53:25;;;;;;;7.87;3.20;;;20.20;99.90;;;;;;5092893;28;20410;-58
2021/07/13 06:55:51;;;;;;;7.70;3.80;;;20.10;99.90;;;;;;5089316;28;20430;-58
2021/07/13 06:58:16;;;;;;;8.95;3.63;;;20.20;99.90;;;;;;5092737;28;20385;-58
2021/07/13 07:00:42;;;;;;;6.20;3.35;;;20.20;99.90;;;;;;5092334;28;20462;-58
2021/07/13 07:03:08;;;;;;;6.93;3.00;;;20.00;99.90;;;;;;5092576;28;20409;-58
2021/07/13 07:05:35;;;;;;;7.20;3.50;;;19.90;99.90;;;;;;5090132;28;20490;-56
2021/07/13 07:08:02;;;;;;;7.20;3.90;;;19.80;99.90;;;;;;5087774;28;20392;-58
2021/07/13 07:10:27;;;;;;;8.90;4.20;;;19.80;99.90;;;;;;5092272;28;20952;-58
2021/07/13 07:12:53;;;;;;;9.43;3.90;;;19.80;99.90;;;;;;5103231;28;20404;-58
2021/07/13 07:15:19;;;;;;;8.40;3.80;;;20.00;99.90;;;;;;5112646;28;20389;-59
2021/07/13 07:17:46;;;;;;;6.60;3.22;;;20.00;99.90;;;;;;5112029;28;20384;-58
2021/07/13 07:20:13;;;;;;;6.38;3.53;;;19.80;99.90;;;;;;5112668;28;20446;-58
2021/07/13 07:22:39;;;;;;;7.20;3.33;;;19.80;99.90;;;;;;5112071;28;20412;-58
2021/07/13 07:25:06;;;;;;;7.90;3.50;;;19.70;99.90;;;;;;5112745;28;20453;-58
2021/07/13 07:27:32;;;;;;;6.82;3.60;;;19.80;99.90;;;;;;5112253;28;20383;-56
2021/07/13 07:29:57;;;;;;;7.33;3.50;;;19.80;99.90;;;;;;5112198;28;20395;-59
2021/07/13 07:32:23;;;;;;;7.90;3.40;;;19.80;99.90;;;;;;5112776;28;20742;-58
2021/07/13 07:34:48;;;;;;;9.40;3.50;;;19.80;99.90;;;;;;5099462;28;20769;-58
2021/07/13 07:37:14;;;;;;;8.18;3.40;;;19.90;99.90;;;;;;5090802;28;20399;-58
2021/07/13 07:39:41;;;;;;;7.83;3.50;;;19.90;99.90;;;;;;5100067;28;20408;-58
2021/07/13 07:42:07;;;;;;;9.38;3.83;;;20.00;99.90;;;;;;5085747;28;20395;-57
2021/07/13 07:44:33;;;;;;;8.80;4.78;;;20.20;99.90;;;;;;5079764;28;20395;-57
2021/07/13 07:46:59;;;;;;;9.30;4.75;;;20.30;99.90;;;;;;5093503;28;20742;-60
2021/07/13 07:49:25;;;;;;;11.13;4.53;;;20.50;99.90;;;;;;5102063;28;20394;-58
2021/07/13 07:51:51;;;;;;;7.93;3.90;;;20.40;99.90;;;;;;5087010;28;20414;-59
2021/07/13 07:54:17;;;;;;;8.33;4.20;;;20.20;99.90;;;;;;5092899;28;20843;-59
2021/07/13 07:56:42;;;;;;;10.10;4.50;;;20.30;99.90;;;;;;5089948;28;20390;-59
2021/07/13 07:59:08;;;;;;;9.80;5.10;;;20.40;99.90;;;;;;5090850;28;20728;-59
2021/07/13 08:01:34;;;;;;;9.68;4.95;;;20.30;99.90;;;;;;5090597;28;20428;-57
2021/07/13 08:04:00;;;;;;;10.15;5.10;;;20.30;99.90;;;;;;5090947;28;20899;-58
2021/07/13 08:06:25;;;;;;;9.67;5.57;;;20.10;99.90;;;;;;5091840;28;20433;-59
2021/07/13 08:08:51;;;;;;;10.73;5.33;;;20.00;99.90;;;;;;5090090;28;20593;-58
2021/07/13 08:11:17;;;;;;;8.40;5.32;;;20.00;99.90;;;;;;5090198;28;20389;-58
2021/07/13 08:13:44;;;;;;;10.40;5.30;;;20.00;99.90;;;;;;5090471;28;20422;-58
2021/07/13 08:16:09;;;;;;;9.40;6.03;;;19.90;99.90;;;;;;5089952;28;20751;-58
2021/07/13 08:18:35;;;;;;;11.68;7.40;;;19.80;99.90;;;;;;5091208;28;20382;-57
2021/07/13 08:21:01;;;;;;;12.40;6.90;;;19.70;99.90;;;;;;5091226;28;20393;-59
2021/07/13 08:23:28;;;;;;;10.90;7.20;;;19.70;99.90;;;;;;5089753;28;20386;-58
2021/07/13 08:25:54;;;;;;;11.95;7.70;;;19.80;99.90;;;;;;5090728;28;20720;-58
2021/07/13 08:28:19;;;;;;;14.32;7.55;;;19.80;99.90;;;;;;5091266;28;20375;-59
2021/07/13 08:30:45;;;;;;;13.40;8.93;;;19.70;99.90;;;;;;5090534;28;20441;-58
2021/07/13 08:33:11;;;;;;;12.18;9.15;;;19.70;99.90;;;;;;5091089;28;20397;-59
2021/07/13 08:35:37;;;;;;;12.95;8.63;;;21.10;99.90;;;;;;5090144;28;20386;-59
2021/07/13 08:38:05;;;;;;;7.88;4.85;;;19.70;99.90;;;;;;5090752;28;20378;-59
2021/07/13 08:40:32;;;;;;;5.70;2.40;;;19.40;99.90;;;;;;5090778;28;20354;-58
2021/07/13 08:42:58;;;;;;;4.93;1.88;;;19.30;99.90;;;;;;5090074;28;20477;-59
2021/07/13 08:45:24;;;;;;;4.20;1.73;;;19.10;99.90;;;;;;5089234;28;20895;-59
2021/07/13 08:47:51;;;;;;;4.60;1.70;;;18.90;99.90;;;;;;5090196;28;20856;-58
2021/07/13 08:50:19;;;;;;;3.70;1.55;;;18.90;99.90;;;;;;5090682;28;20378;-59
2021/07/13 08:52:45;;;;;;;4.60;1.40;;;18.80;99.90;;;;;;5088739;28;20805;-59
2021/07/13 08:55:13;;;;;;;3.70;1.42;;;18.70;99.90;;;;;;5090513;28;20507;-59
2021/07/13 08:57:40;;;;;;;4.00;1.60;;;18.70;99.90;;;;;;5089187;28;20374;-59
2021/07/13 09:00:09;;;;;;;4.18;1.50;;;18.80;99.90;;;;;;5088470;28;20383;-59
2021/07/13 09:02:34;;;;;;;3.20;0.90;;;18.70;99.90;;;;;;5089036;28;20382;-57
2021/07/13 09:05:00;;;;;;;3.75;0.80;;;18.60;99.90;;;;;;5089940;28;20844;-59
2021/07/13 09:07:29;;;;;;;4.25;0.80;;;18.40;99.90;;;;;;5090801;28;20390;-59
2021/07/13 09:10:02;;;;;;;4.10;0.60;;;18.40;99.90;;;;;;5089244;28;20463;-59
2021/07/13 09:12:28;;;;;;;3.20;0.60;;;18.10;99.90;;;;;;5090711;28;20438;-61
2021/07/13 09:15:04;;;;;;;2.70;0.50;;;17.90;99.90;;;;;;5089476;28;21025;-61
2021/07/13 09:17:43;;;;;;;2.80;0.50;;;17.70;99.90;;;;;;5090432;28;20930;-61
2021/07/13 09:20:11;;;;;;;3.95;0.60;;;17.60;99.90;;;;;;5090265;28;20398;-61
2021/07/13 09:22:50;;;;;;;2.70;0.50;;;17.50;99.90;;;;;;5089690;28;20386;-59
2021/07/13 09:25:24;;;;;;;2.90;0.50;;;17.40;99.90;;;;;;5089946;28;20466;-61
2021/07/13 09:28:07;;;;;;;4.00;0.52;;;17.40;99.90;;;;;;5089666;28;20412;-61
2021/07/13 09:30:33;;;;;;;2.70;0.43;;;17.30;99.90;;;;;;5090121;28;20381;-61
2021/07/13 09:33:11;;;;;;;2.60;0.40;;;17.10;99.90;;;;;;5089309;28;20962;-60
2021/07/13 09:35:37;;;;;;;4.88;0.50;;;17.00;99.90;;;;;;5088041;28;20434;-59
2021/07/13 09:38:03;;;;;;;3.17;0.50;;;16.90;99.90;;;;;;5090302;28;20386;-61
2021/07/13 09:40:36;;;;;;;3.33;0.50;;;16.90;99.90;;;;;;5088516;28;20404;-61
2021/07/13 09:43:03;;;;;;;2.90;0.50;;;16.70;99.90;;;;;;5089234;28;20384;-61
2021/07/13 09:45:33;;;;;;;2.90;0.50;;;16.70;99.90;;;;;;5089449;28;20376;-61
2021/07/13 09:48:12;;;;;;;4.28;0.50;;;16.70;99.90;;;;;;5089211;28;20437;-61
2021/07/13 09:50:41;;;;;;;4.47;0.50;;;16.50;99.90;;;;;;5089341;28;20384;-59
2021/07/13 09:53:15;;;;;;;3.00;0.60;;;15.90;99.90;;;;;;5089470;28;20786;-61
2021/07/13 09:55:42;;;;;;;2.78;0.50;;;16.50;99.90;;;;;;5088807;28;20394;-61
2021/07/13 09:58:10;;;;;;;3.40;0.77;;;16.40;99.90;;;;;;5090011;28;20378;-61
2021/07/13 10:00:36;;;;;;;2.70;0.60;;;16.60;99.90;;;;;;5088983;28;20377;-59
2021/07/13 10:03:02;;;;;;;2.80;0.60;;;16.60;99.90;;;;;;5089839;28;20397;-61
2021/07/13 10:05:29;;;;;;;4.10;0.70;;;16.50;99.90;;;;;;5089786;28;20443;-61
2021/07/13 10:07:57;;;;;;;3.20;0.40;;;16.50;99.90;;;;;;5088853;28;20386;-62
2021/07/13 10:10:24;;;;;;;3.20;0.60;;;16.50;99.90;;;;;;5089093;28;20432;-61
2021/07/13 10:12:53;;;;;;;2.70;0.50;;;16.50;99.90;;;;;;5088629;28;20409;-62
2021/07/13 10:15:19;;;;;;;2.65;0.40;;;16.60;99.90;;;;;;5089322;28;20374;-62
2021/07/13 10:17:46;;;;;;;2.97;0.50;;;16.80;99.90;;;;;;5088450;28;20438;-61
2021/07/13 10:20:12;;;;;;;3.80;0.50;;;16.90;99.90;;;;;;5089528;28;20381;-61
2021/07/13 10:22:43;;;;;;;3.20;0.50;;;17.00;99.90;;;;;;5089016;28;20374;-59
2021/07/13 10:25:09;;;;;;;2.70;0.40;;;17.10;99.90;;;;;;5088167;28;20745;-62
2021/07/13 10:27:37;;;;;;;2.80;0.50;;;17.20;99.90;;;;;;5089126;28;20863;-60
2021/07/13 10:30:07;;;;;;;3.92;0.50;;;17.50;99.90;;;;;;5088823;28;20374;-61
2021/07/13 10:32:35;;;;;;;2.80;0.50;;;17.70;99.90;;;;;;5089250;28;20409;-60
2021/07/13 10:35:11;;;;;;;3.15;0.50;;;17.80;99.90;;;;;;5088380;28;20382;-59
2021/07/13 10:37:47;;;;;;;3.07;0.50;;;17.70;99.90;;;;;;5087557;28;20846;-58
2021/07/13 10:40:15;;;;;;;2.80;0.40;;;17.80;99.90;;;;;;5082258;28;20508;-60
2021/07/13 10:42:41;;;;;;;2.90;0.50;;;17.70;99.90;;;;;;5076585;28;20400;-63
2021/07/13 10:45:15;;;;;;;2.80;0.35;;;17.60;99.90;;;;;;5072650;28;20385;-62
2021/07/13 10:48:05;;;;;;;4.03;0.45;;;17.70;99.90;;;;;;5085596;28;20390;-61
2021/07/13 10:50:32;;;;;;;2.60;0.30;;;17.60;99.90;;;;;;5082914;28;20459;-62
2021/07/13 10:53:15;;;;;;;3.20;0.40;;;17.70;99.90;;;;;;5078449;28;20490;-62
2021/07/13 10:55:40;;;;;;;2.90;0.40;;;17.70;99.90;;;;;;5068549;28;20388;-58
2021/07/13 10:58:09;;;;;;;3.10;0.50;;;17.60;99.90;;;;;;5069019;28;20727;-60
2021/07/13 11:00:50;;;;;;;3.30;0.45;;;17.60;99.90;;;;;;5073352;28;20892;-62
2021/07/13 11:03:33;;;;;;;2.70;0.30;;;17.30;99.90;;;;;;5078673;28;20440;-62
2021/07/13 11:06:10;;;;;;;4.50;0.43;;;17.20;99.90;;;;;;5086297;28;20686;-62
2021/07/13 11:08:44;;;;;;;2.80;0.37;;;17.30;99.90;;;;;;5081861;28;20752;-62
2021/07/13 11:11:15;;;;;;;5.00;0.50;;;17.30;99.90;;;;;;5082760;28;20397;-62
2021/07/13 11:13:43;;;;;;;3.50;0.50;;;17.30;99.90;;;;;;5083331;28;20414;-60
2021/07/13 11:16:09;;;;;;;3.42;0.50;;;17.40;99.90;;;;;;5083915;28;20508;-62
2021/07/13 11:18:38;;;;;;;4.50;0.50;;;17.60;99.90;;;;;;5083586;28;20469;-60
2021/07/13 11:21:18;;;;;;;5.40;0.60;;;17.90;99.90;;;;;;5081973;28;20374;-60
2021/07/13 11:23:48;;;;;;;3.30;0.70;;;18.60;99.90;;;;;;5086084;28;20758;-60
2021/07/13 11:26:16;;;;;;;3.60;0.40;;;19.10;99.90;;;;;;5088557;28;20411;-60
2021/07/13 11:28:49;;;;;;;4.60;0.55;;;19.00;99.90;;;;;;5073007;28;20384;-58
2021/07/13 11:31:26;;;;;;;4.20;0.50;;;19.10;99.90;;;;;;5075485;28;20879;-59
2021/07/13 11:34:03;;;;;;;4.70;0.50;;;18.80;99.90;;;;;;5085427;28;20386;-59
2021/07/13 11:36:39;;;;;;;6.30;0.63;;;18.70;99.90;;;;;;5083215;28;20394;-60
2021/07/13 11:39:07;;;;;;;4.35;0.40;;;18.70;99.90;;;;;;5085937;28;20390;-59
2021/07/13 11:41:33;;;;;;;3.90;0.60;;;18.70;99.90;;;;;;5087929;28;20465;-59
2021/07/13 11:44:03;;;;;;;4.10;0.50;;;18.60;99.90;;;;;;5087592;28;20544;-60
2021/07/13 11:46:34;;;;;;;4.00;0.60;;;18.60;99.90;;;;;;5085661;28;20802;-60
2021/07/13 11:49:11;;;;;;;3.90;0.40;;;18.50;99.90;;;;;;5085799;28;20370;-59
2021/07/13 11:51:55;;;;;;;3.70;0.45;;;18.40;99.90;;;;;;5084933;28;20380;-59
2021/07/13 11:54:25;;;;;;;3.50;0.80;;;18.40;99.90;;;;;;5087572;28;20802;-59
2021/07/13 11:56:53;;;;;;;3.10;0.50;;;18.60;99.90;;;;;;5086623;28;20411;-59
2021/07/13 11:59:22;;;;;;;3.20;0.40;;;18.60;99.90;;;;;;5085982;28;20389;-59
2021/07/13 12:01:54;;;;;;;3.80;0.60;;;18.70;99.90;;;;;;5088409;28;20378;-60
2021/07/13 12:04:21;;;;;;;3.50;1.00;;;18.90;99.90;;;;;;5086780;28;20461;-59
2021/07/13 12:06:54;;;;;;;4.00;0.50;;;19.00;99.90;;;;;;5086291;28;20934;-59
2021/07/13 12:09:24;;;;;;;3.38;0.60;;;19.10;99.90;;;;;;5084163;28;20413;-59
2021/07/13 12:11:51;;;;;;;5.05;0.50;;;19.20;99.90;;;;;;5086498;28;20456;-61
2021/07/13 12:14:19;;;;;;;3.47;0.60;;;19.40;99.90;;;;;;5086878;28;20378;-61
2021/07/13 12:16:45;;;;;;;4.00;0.60;;;19.60;99.90;;;;;;5085307;28;20839;-61
2021/07/13 12:19:13;;;;;;;3.80;0.60;;;19.90;99.90;;;;;;5076835;28;20380;-61
2021/07/13 12:21:51;;;;;;;3.28;0.60;;;20.20;99.90;;;;;;5071517;28;20522;-61
2021/07/13 12:24:20;;;;;;;4.47;0.70;;;20.40;99.90;;;;;;5071461;28;20380;-60
2021/07/13 12:26:54;;;;;;;3.60;0.60;;;20.20;99.90;;;;;;5072962;28;20398;-61
2021/07/13 12:29:24;;;;;;;3.20;0.70;;;20.20;99.90;;;;;;5070871;28;20376;-61
2021/07/13 12:31:55;;;;;;;5.40;0.60;;;20.30;99.90;;;;;;5070401;28;20403;-60
2021/07/13 12:34:30;;;;;;;3.42;0.50;;;20.10;99.90;;;;;;5071687;28;20881;-62
2021/07/13 12:37:28;;;;;;;3.10;0.50;;;19.80;99.90;;;;;;5070426;28;20892;-63
2021/07/13 12:40:09;;;;;;;3.13;0.50;;;19.50;99.90;;;;;;5085239;28;20398;-61
2021/07/13 12:42:48;;;;;;;3.30;0.50;;;19.40;99.90;;;;;;5090597;28;20419;-63
2021/07/13 12:45:16;;;;;;;3.78;0.60;;;19.40;99.90;;;;;;5078455;28;20400;-62
2021/07/13 12:47:52;;;;;;;4.90;0.70;;;19.20;99.90;;;;;;5070654;28;20376;-57
2021/07/13 12:50:18;;;;;;;3.40;0.60;;;19.40;99.90;;;;;;5084148;28;20393;-59
2021/07/13 12:52:46;;;;;;;3.10;0.50;;;19.40;99.90;;;;;;5089996;28;20402;-58